createdAt,value
2023-02-05T00:00:01.549Z,-3.57
2023-02-05T00:02:31.788Z,-3.52
2023-02-05T00:05:01.434Z,-3.46
2023-02-05T00:07:30.352Z,-3.40
2023-02-05T00:09:59.596Z,-3.30
2023-02-05T00:12:29.922Z,-3.17
2023-02-05T00:14:59.087Z,-3.03
2023-02-05T00:17:31.943Z,-2.89
2023-02-05T00:20:02.184Z,-2.78
2023-02-05T00:22:32.320Z,-2.66
2023-02-05T00:25:01.285Z,-2.57
2023-02-05T00:27:31.821Z,-2.47
2023-02-05T00:30:00.524Z,-2.37
2023-02-05T00:32:29.835Z,-2.29
2023-02-05T00:34:58.428Z,-2.24
2023-02-05T00:37:27.080Z,-2.18
2023-02-05T00:39:58.607Z,-2.11
2023-02-05T00:42:28.766Z,-2.04
2023-02-05T00:44:58.515Z,-1.95
2023-02-05T00:47:28.032Z,-1.85
2023-02-05T00:49:56.868Z,-1.79
2023-02-05T00:52:25.762Z,-1.74
2023-02-05T00:54:57.450Z,-1.70
2023-02-05T00:57:27.029Z,-1.70
2023-02-05T00:59:58.771Z,-1.72
2023-02-05T01:02:29.459Z,-1.74
2023-02-05T01:04:58.599Z,-1.76
2023-02-05T01:07:28.873Z,-1.77
2023-02-05T01:09:59.425Z,-1.77
2023-02-05T01:12:29.432Z,-1.81
2023-02-05T01:15:06.224Z,-1.83
2023-02-05T01:17:36.624Z,-1.81
2023-02-05T01:20:09.688Z,-1.77
2023-02-05T01:22:40.779Z,-1.71
2023-02-05T01:25:09.721Z,-1.65
2023-02-05T01:27:39.720Z,-1.61
2023-02-05T01:30:12.092Z,-1.55
2023-02-05T01:32:43.832Z,-1.51
2023-02-05T01:35:12.472Z,-1.49
2023-02-05T01:37:43.111Z,-1.44
2023-02-05T01:40:16.248Z,-1.42
2023-02-05T01:42:47.269Z,-1.39
2023-02-05T01:45:23.886Z,-1.37
2023-02-05T01:48:01.351Z,-1.40
2023-02-05T01:50:39.355Z,-1.46
2023-02-05T01:53:11.649Z,-1.53
2023-02-05T01:55:48.583Z,-1.57
2023-02-05T01:58:18.332Z,-1.60
2023-02-05T02:00:47.946Z,-1.57
2023-02-05T02:03:17.591Z,-1.53
2023-02-05T02:05:47.093Z,-1.51
2023-02-05T02:08:16.817Z,-1.49
2023-02-05T02:10:47.713Z,-1.45
2023-02-05T02:13:18.288Z,-1.40
2023-02-05T02:15:49.853Z,-1.37
2023-02-05T02:18:26.539Z,-1.33
2023-02-05T02:21:20.866Z,-1.28
2023-02-05T02:24:11.443Z,-1.22
2023-02-05T02:27:12.492Z,-1.20
2023-02-05T02:30:09.619Z,-1.16
2023-02-05T02:32:39.138Z,-1.15
2023-02-05T02:35:14.258Z,-1.15
2023-02-05T02:37:48.708Z,-1.16
2023-02-05T02:40:27.657Z,-1.18
2023-02-05T02:43:18.067Z,-1.23
2023-02-05T02:45:50.815Z,-1.32
2023-02-05T02:48:23.292Z,-1.43
2023-02-05T02:50:54.044Z,-1.60
2023-02-05T02:53:30.702Z,-1.77
2023-02-05T02:56:00.758Z,-1.92
2023-02-05T02:58:33.983Z,-2.03
2023-02-05T03:01:03.112Z,-2.12
2023-02-05T03:03:32.860Z,-2.20
2023-02-05T03:06:06.215Z,-2.27
2023-02-05T03:08:38.964Z,-2.30
2023-02-05T03:11:12.433Z,-2.31
2023-02-05T03:13:43.141Z,-2.34
2023-02-05T03:16:14.376Z,-2.42
2023-02-05T03:18:43.558Z,-2.47
2023-02-05T03:21:17.310Z,-2.51
2023-02-05T03:23:48.409Z,-2.46
2023-02-05T03:26:36.741Z,-2.39
2023-02-05T03:29:15.071Z,-2.32
2023-02-05T03:32:19.276Z,-2.29
2023-02-05T03:34:53.665Z,-2.30
2023-02-05T03:37:45.166Z,-2.33
2023-02-05T03:40:32.773Z,-2.39
2023-02-05T03:43:15.540Z,-2.44
2023-02-05T03:46:05.693Z,-2.45
2023-02-05T03:48:57.286Z,-2.44
2023-02-05T03:51:46.814Z,-2.42
2023-02-05T03:54:22.345Z,-2.34
2023-02-05T03:56:55.493Z,-2.26
2023-02-05T03:59:26.495Z,-2.25
2023-02-05T04:01:55.996Z,-2.28
2023-02-05T04:04:25.845Z,-2.33
2023-02-05T04:06:57.643Z,-2.42
2023-02-05T04:09:26.744Z,-2.49
2023-02-05T04:11:57.095Z,-2.54
2023-02-05T04:14:26.619Z,-2.57
2023-02-05T04:16:59.725Z,-2.57
2023-02-05T04:19:30.190Z,-2.56
2023-02-05T04:22:01.638Z,-2.54
2023-02-05T04:24:35.030Z,-2.52
2023-02-05T04:27:04.702Z,-2.48
2023-02-05T04:29:34.314Z,-2.48
2023-02-05T04:32:04.553Z,-2.46
2023-02-05T04:34:33.925Z,-2.42
2023-02-05T04:37:05.130Z,-2.36
2023-02-05T04:39:35.225Z,-2.31
2023-02-05T04:42:04.185Z,-2.28
2023-02-05T04:44:38.188Z,-2.27
2023-02-05T04:47:08.880Z,-2.28
2023-02-05T04:49:41.962Z,-2.29
2023-02-05T04:52:11.785Z,-2.31
2023-02-05T04:54:40.629Z,-2.31
2023-02-05T04:57:10.491Z,-2.30
2023-02-05T04:59:39.742Z,-2.25
2023-02-05T05:02:09.453Z,-2.18
2023-02-05T05:04:38.709Z,-2.12
2023-02-05T05:07:10.557Z,-2.06
2023-02-05T05:09:40.085Z,-1.98
2023-02-05T05:12:10.541Z,-1.90
2023-02-05T05:14:41.548Z,-1.82
2023-02-05T05:17:15.742Z,-1.76
2023-02-05T05:19:46.312Z,-1.70
2023-02-05T05:22:17.711Z,-1.64
2023-02-05T05:24:47.641Z,-1.55
2023-02-05T05:27:19.061Z,-1.48
2023-02-05T05:29:48.129Z,-1.43
2023-02-05T05:32:17.649Z,-1.37
2023-02-05T05:34:48.567Z,-1.33
2023-02-05T05:37:19.348Z,-1.33
2023-02-05T05:40:07.930Z,-1.31
2023-02-05T05:42:56.907Z,-1.30
2023-02-05T05:45:27.395Z,-1.34
2023-02-05T05:47:58.272Z,-1.37
2023-02-05T05:50:28.555Z,-1.39
2023-02-05T05:53:03.002Z,-1.39
2023-02-05T05:55:33.292Z,-1.39
2023-02-05T05:58:04.199Z,-1.43
2023-02-05T06:00:35.076Z,-1.43
2023-02-05T06:03:13.991Z,-1.43
2023-02-05T06:05:45.074Z,-1.44
2023-02-05T06:08:16.968Z,-1.42
2023-02-05T06:10:47.108Z,-1.38
2023-02-05T06:13:19.041Z,-1.35
2023-02-05T06:15:52.677Z,-1.35
2023-02-05T06:18:25.182Z,-1.37
2023-02-05T06:20:56.658Z,-1.39
2023-02-05T06:23:27.836Z,-1.38
2023-02-05T06:25:57.611Z,-1.34
2023-02-05T06:28:27.153Z,-1.26
2023-02-05T06:30:56.184Z,-1.18
2023-02-05T06:33:25.235Z,-1.10
2023-02-05T06:35:54.499Z,-1.01
2023-02-05T06:38:23.813Z,-0.90
2023-02-05T06:40:53.902Z,-0.79
2023-02-05T06:43:22.756Z,-0.63
2023-02-05T06:45:52.316Z,-0.42
2023-02-05T06:48:23.245Z,-0.19
2023-02-05T06:50:52.521Z,0.07
2023-02-05T06:53:21.695Z,0.40
2023-02-05T06:55:50.911Z,0.75
2023-02-05T06:58:19.569Z,1.11
2023-02-05T07:00:48.472Z,1.40
2023-02-05T07:03:17.207Z,1.68
2023-02-05T07:05:52.106Z,1.89
2023-02-05T07:08:20.690Z,2.00
2023-02-05T07:10:53.019Z,2.22
2023-02-05T07:13:24.828Z,2.49
2023-02-05T07:15:54.901Z,2.61
2023-02-05T07:18:24.794Z,2.71
2023-02-05T07:20:57.842Z,2.87
2023-02-05T07:23:27.136Z,2.98
2023-02-05T07:25:56.084Z,3.16
2023-02-05T07:28:25.171Z,3.44
2023-02-05T07:30:56.019Z,3.68
2023-02-05T07:33:26.221Z,4.00
2023-02-05T07:35:55.770Z,4.19
2023-02-05T07:38:27.668Z,4.17
2023-02-05T07:40:56.591Z,3.90
2023-02-05T07:43:26.245Z,3.44
2023-02-05T07:45:59.264Z,2.93
2023-02-05T07:48:28.071Z,2.64
2023-02-05T07:50:59.983Z,2.50
2023-02-05T07:53:30.582Z,2.50
2023-02-05T07:56:04.271Z,2.73
2023-02-05T07:58:34.444Z,3.19
2023-02-05T08:01:04.286Z,3.74
2023-02-05T08:03:33.574Z,3.99
2023-02-05T08:06:07.415Z,3.89
2023-02-05T08:08:36.442Z,3.46
2023-02-05T08:11:06.669Z,3.02
2023-02-05T08:13:36.623Z,3.27
2023-02-05T08:16:10.486Z,3.86
2023-02-05T08:18:40.208Z,4.08
2023-02-05T08:21:08.949Z,3.97
2023-02-05T08:23:37.742Z,3.82
2023-02-05T08:26:06.742Z,3.98
2023-02-05T08:28:37.052Z,4.30
2023-02-05T08:31:17.819Z,4.41
2023-02-05T08:33:49.861Z,3.90
2023-02-05T08:36:20.567Z,3.16
2023-02-05T08:38:50.210Z,2.66
2023-02-05T08:41:20.081Z,2.49
2023-02-05T08:43:50.917Z,2.36
2023-02-05T08:46:22.170Z,2.23
2023-02-05T08:48:53.431Z,2.27
2023-02-05T08:51:23.348Z,2.65
2023-02-05T08:53:52.175Z,3.42
2023-02-05T08:56:21.813Z,4.52
2023-02-05T08:58:51.276Z,5.47
2023-02-05T09:01:21.111Z,5.91
2023-02-05T09:03:50.727Z,6.47
2023-02-05T09:06:19.683Z,6.87
2023-02-05T09:08:49.311Z,7.22
2023-02-05T09:11:21.914Z,7.41
2023-02-05T09:13:51.540Z,7.60
2023-02-05T09:16:20.449Z,7.70
2023-02-05T09:18:50.572Z,7.57
2023-02-05T09:21:19.888Z,7.32
2023-02-05T09:23:48.429Z,7.22
2023-02-05T09:26:17.580Z,7.04
2023-02-05T09:28:46.918Z,6.64
2023-02-05T09:31:18.247Z,6.36
2023-02-05T09:33:48.077Z,5.92
2023-02-05T09:36:22.662Z,5.27
2023-02-05T09:39:02.012Z,4.65
2023-02-05T09:41:51.071Z,4.22
2023-02-05T09:44:39.234Z,3.75
2023-02-05T09:47:24.416Z,3.17
2023-02-05T09:49:59.083Z,2.83
2023-02-05T09:52:32.083Z,2.66
2023-02-05T09:55:05.162Z,2.50
2023-02-05T09:57:36.497Z,2.38
2023-02-05T10:00:06.612Z,2.20
2023-02-05T10:02:50.736Z,1.98
2023-02-05T10:05:19.719Z,1.70
2023-02-05T10:08:06.215Z,1.54
2023-02-05T10:10:46.129Z,1.51
2023-02-05T10:13:26.338Z,1.42
2023-02-05T10:16:16.343Z,1.39
2023-02-05T10:19:10.518Z,1.42
2023-02-05T10:22:12.198Z,1.35
2023-02-05T10:24:52.728Z,1.14
2023-02-05T10:27:29.114Z,0.92
2023-02-05T10:30:14.142Z,0.78
2023-02-05T10:32:55.998Z,0.69
2023-02-05T10:35:46.827Z,0.67
2023-02-05T10:38:25.099Z,0.80
2023-02-05T10:41:12.638Z,1.00
2023-02-05T10:43:54.418Z,1.11
2023-02-05T10:46:23.111Z,1.16
2023-02-05T10:48:57.512Z,1.08
2023-02-05T10:51:38.627Z,0.93
2023-02-05T10:54:15.578Z,0.86
2023-02-05T10:56:45.015Z,0.84
2023-02-05T10:59:26.988Z,0.81
2023-02-05T11:02:03.369Z,0.71
2023-02-05T11:05:00.725Z,0.60
2023-02-05T11:07:50.784Z,0.54
2023-02-05T11:10:21.949Z,0.42
2023-02-05T11:13:01.821Z,0.31
2023-02-05T11:15:32.684Z,0.23
2023-02-05T11:18:06.932Z,0.16
2023-02-05T11:20:38.380Z,0.15
2023-02-05T11:23:22.316Z,0.18
2023-02-05T11:25:54.900Z,0.17
2023-02-05T11:28:24.781Z,0.10
2023-02-05T11:30:54.045Z,0.03
2023-02-05T11:33:23.334Z,-0.05
2023-02-05T11:36:03.545Z,-0.10
2023-02-05T11:38:44.734Z,-0.07
2023-02-05T11:41:15.722Z,0.05
2023-02-05T11:43:51.421Z,0.14
2023-02-05T11:46:22.923Z,0.21
2023-02-05T11:49:02.184Z,0.32
2023-02-05T11:51:44.997Z,0.35
2023-02-05T11:54:20.635Z,0.31
2023-02-05T11:57:24.082Z,0.27
2023-02-05T11:59:57.465Z,0.22
2023-02-05T12:02:31.620Z,0.10
2023-02-05T12:05:06.464Z,0.01
2023-02-05T12:07:45.476Z,0.02
2023-02-05T12:10:44.549Z,0.01
2023-02-05T12:13:36.010Z,-0.05
2023-02-05T12:16:50.534Z,-0.07
2023-02-05T12:19:27.398Z,0.01
2023-02-05T12:22:13.963Z,0.08
2023-02-05T12:24:49.078Z,0.11
2023-02-05T12:27:37.406Z,0.14
2023-02-05T12:30:27.491Z,0.19
2023-02-05T12:33:01.938Z,0.17
2023-02-05T12:35:50.897Z,0.14
2023-02-05T12:38:32.554Z,0.10
2023-02-05T12:41:23.317Z,0.07
2023-02-05T12:43:53.715Z,0.06
2023-02-05T12:46:45.423Z,0.10
2023-02-05T12:49:36.140Z,0.17
2023-02-05T12:52:39.121Z,0.19
2023-02-05T12:55:29.566Z,0.19
2023-02-05T12:58:02.430Z,0.14
2023-02-05T13:00:44.658Z,0.10
2023-02-05T13:03:19.736Z,0.07
2023-02-05T13:05:53.741Z,-0.01
2023-02-05T13:08:48.762Z,-0.08
2023-02-05T13:11:50.810Z,-0.13
2023-02-05T13:14:26.309Z,-0.19
2023-02-05T13:17:12.141Z,-0.20
2023-02-05T13:19:44.674Z,-0.21
2023-02-05T13:22:37.165Z,-0.24
2023-02-05T13:25:57.312Z,-0.28
2023-02-05T13:28:43.728Z,-0.37
2023-02-05T13:31:27.896Z,-0.42
2023-02-05T13:34:01.744Z,-0.46
2023-02-05T13:36:42.886Z,-0.50
2023-02-05T13:39:34.390Z,-0.54
2023-02-05T13:42:18.894Z,-0.60
2023-02-05T13:45:05.183Z,-0.74
2023-02-05T13:47:51.660Z,-0.84
2023-02-05T13:50:48.154Z,-0.94
2023-02-05T13:53:50.993Z,-1.03
2023-02-05T13:56:29.463Z,-1.06
2023-02-05T13:59:01.016Z,-1.10
2023-02-05T14:01:35.113Z,-1.15
2023-02-05T14:04:17.713Z,-1.18
2023-02-05T14:06:51.806Z,-1.23
2023-02-05T14:09:24.137Z,-1.26
2023-02-05T14:11:58.538Z,-1.29
2023-02-05T14:14:29.182Z,-1.34
2023-02-05T14:17:01.004Z,-1.37
2023-02-05T14:19:33.039Z,-1.37
2023-02-05T14:22:04.193Z,-1.32
2023-02-05T14:24:49.661Z,-1.28
2023-02-05T14:27:37.838Z,-1.25
2023-02-05T14:30:33.274Z,-1.26
2023-02-05T14:33:30.597Z,-1.28
2023-02-05T14:36:22.970Z,-1.30
2023-02-05T14:39:26.648Z,-1.31
2023-02-05T14:41:59.512Z,-1.30
2023-02-05T14:44:36.098Z,-1.29
2023-02-05T14:47:26.568Z,-1.33
2023-02-05T14:50:05.966Z,-1.41
2023-02-05T14:52:42.993Z,-1.49
2023-02-05T14:55:14.447Z,-1.54
2023-02-05T14:57:58.327Z,-1.61
2023-02-05T15:00:30.095Z,-1.67
2023-02-05T15:03:13.697Z,-1.73
2023-02-05T15:05:47.495Z,-1.78
2023-02-05T15:08:36.282Z,-1.82
2023-02-05T15:11:13.599Z,-1.85
2023-02-05T15:13:43.579Z,-1.88
2023-02-05T15:16:13.437Z,-1.88
2023-02-05T15:18:59.367Z,-1.89
2023-02-05T15:21:41.061Z,-1.91
2023-02-05T15:24:21.714Z,-1.93
2023-02-05T15:26:52.811Z,-1.92
2023-02-05T15:29:27.154Z,-1.88
2023-02-05T15:31:59.572Z,-1.81
2023-02-05T15:34:33.407Z,-1.74
2023-02-05T15:37:18.958Z,-1.67
2023-02-05T15:39:55.793Z,-1.61
2023-02-05T15:42:31.857Z,-1.59
2023-02-05T15:45:18.213Z,-1.60
2023-02-05T15:48:19.188Z,-1.63
2023-02-05T15:50:52.482Z,-1.70
2023-02-05T15:53:50.834Z,-1.76
2023-02-05T15:56:29.687Z,-1.81
2023-02-05T15:59:12.704Z,-1.83
2023-02-05T16:02:00.525Z,-1.89
2023-02-05T16:04:32.265Z,-1.93
2023-02-05T16:07:05.140Z,-1.95
2023-02-05T16:09:36.118Z,-1.94
2023-02-05T16:12:13.193Z,-1.92
2023-02-05T16:14:42.297Z,-1.89
2023-02-05T16:17:19.849Z,-1.87
2023-02-05T16:19:53.523Z,-1.86
2023-02-05T16:22:44.611Z,-1.86
2023-02-05T16:25:24.281Z,-1.86
2023-02-05T16:27:55.234Z,-1.89
2023-02-05T16:30:34.535Z,-1.92
2023-02-05T16:33:04.674Z,-1.97
2023-02-05T16:35:36.467Z,-2.01
2023-02-05T16:38:09.556Z,-2.02
2023-02-05T16:40:46.993Z,-2.05
2023-02-05T16:43:36.353Z,-2.05
2023-02-05T16:46:08.611Z,-2.02
2023-02-05T16:48:39.257Z,-1.97
2023-02-05T16:51:34.139Z,-1.94
2023-02-05T16:54:22.422Z,-1.90
2023-02-05T16:56:56.959Z,-1.89
2023-02-05T16:59:29.890Z,-1.88
2023-02-05T17:02:03.838Z,-1.88
2023-02-05T17:04:37.280Z,-1.85
2023-02-05T17:07:16.915Z,-1.84
2023-02-05T17:09:46.887Z,-1.82
2023-02-05T17:12:20.511Z,-1.83
2023-02-05T17:15:03.695Z,-1.86
2023-02-05T17:17:33.753Z,-1.89
2023-02-05T17:20:04.759Z,-1.92
2023-02-05T17:22:35.020Z,-1.94
2023-02-05T17:25:06.284Z,-1.96
2023-02-05T17:27:39.735Z,-1.96
2023-02-05T17:30:15.262Z,-1.97
2023-02-05T17:32:47.022Z,-1.97
2023-02-05T17:35:17.441Z,-2.01
2023-02-05T17:37:46.069Z,-2.04
2023-02-05T17:40:18.004Z,-2.08
2023-02-05T17:42:47.455Z,-2.12
2023-02-05T17:45:24.510Z,-2.16
2023-02-05T17:47:54.736Z,-2.18
2023-02-05T17:50:23.790Z,-2.21
2023-02-05T17:52:52.736Z,-2.21
2023-02-05T17:55:23.494Z,-2.21
2023-02-05T17:57:52.479Z,-2.21
2023-02-05T18:00:23.833Z,-2.18
2023-02-05T18:02:53.582Z,-2.16
2023-02-05T18:05:24.297Z,-2.14
2023-02-05T18:08:00.396Z,-2.13
2023-02-05T18:10:34.764Z,-2.14
2023-02-05T18:13:05.045Z,-2.15
2023-02-05T18:15:33.917Z,-2.16
2023-02-05T18:18:04.024Z,-2.18
2023-02-05T18:20:35.370Z,-2.18
2023-02-05T18:23:04.986Z,-2.18
2023-02-05T18:25:34.321Z,-2.17
2023-02-05T18:28:04.668Z,-2.16
2023-02-05T18:30:34.821Z,-2.12
2023-02-05T18:33:04.911Z,-2.10
2023-02-05T18:35:33.911Z,-2.06
2023-02-05T18:38:03.759Z,-2.03
2023-02-05T18:40:38.889Z,-2.06
2023-02-05T18:43:08.696Z,-2.08
2023-02-05T18:45:41.709Z,-2.09
2023-02-05T18:48:13.060Z,-2.11
2023-02-05T18:50:42.363Z,-2.12
2023-02-05T18:53:14.610Z,-2.12
2023-02-05T18:55:44.075Z,-2.12
2023-02-05T18:58:13.628Z,-2.11
2023-02-05T19:00:44.314Z,-2.10
2023-02-05T19:03:15.604Z,-2.08
2023-02-05T19:05:45.214Z,-2.06
2023-02-05T19:08:14.996Z,-2.05
2023-02-05T19:10:44.186Z,-2.02
2023-02-05T19:13:15.111Z,-2.00
2023-02-05T19:15:45.068Z,-1.98
2023-02-05T19:18:15.461Z,-1.97
2023-02-05T19:20:46.118Z,-1.95
2023-02-05T19:23:16.191Z,-1.94
2023-02-05T19:25:46.920Z,-1.93
2023-02-05T19:28:20.151Z,-1.94
2023-02-05T19:30:49.757Z,-1.95
2023-02-05T19:33:19.790Z,-1.98
2023-02-05T19:35:49.516Z,-2.00
2023-02-05T19:38:21.630Z,-2.02
2023-02-05T19:40:51.248Z,-2.03
2023-02-05T19:43:21.071Z,-2.04
2023-02-05T19:45:51.076Z,-2.06
2023-02-05T19:48:21.107Z,-2.06
2023-02-05T19:50:49.823Z,-2.07
2023-02-05T19:53:19.359Z,-2.09
2023-02-05T19:55:51.517Z,-2.10
2023-02-05T19:58:21.247Z,-2.10
2023-02-05T20:00:51.007Z,-2.08
2023-02-05T20:03:20.211Z,-2.08
2023-02-05T20:05:49.132Z,-2.08
2023-02-05T20:08:18.285Z,-2.09
2023-02-05T20:10:46.994Z,-2.08
2023-02-05T20:13:16.848Z,-2.06
2023-02-05T20:15:45.957Z,-2.04
2023-02-05T20:18:15.817Z,-2.04
2023-02-05T20:20:46.655Z,-2.03
2023-02-05T20:23:17.344Z,-2.03
2023-02-05T20:25:52.861Z,-2.02
2023-02-05T20:28:22.584Z,-2.00
2023-02-05T20:31:10.583Z,-2.00
2023-02-05T20:33:39.631Z,-2.00
2023-02-05T20:36:13.695Z,-2.02
2023-02-05T20:38:43.287Z,-2.05
2023-02-05T20:41:15.441Z,-2.06
2023-02-05T20:43:44.909Z,-2.06
2023-02-05T20:46:14.544Z,-2.05
2023-02-05T20:48:44.600Z,-2.06
2023-02-05T20:51:15.933Z,-2.05
2023-02-05T20:53:45.232Z,-2.06
2023-02-05T20:56:19.084Z,-2.06
2023-02-05T20:58:49.733Z,-2.07
2023-02-05T21:01:22.666Z,-2.08
2023-02-05T21:03:55.847Z,-2.08
2023-02-05T21:06:26.699Z,-2.08
2023-02-05T21:08:56.435Z,-2.07
2023-02-05T21:11:26.524Z,-2.06
2023-02-05T21:13:56.577Z,-2.04
2023-02-05T21:16:26.492Z,-2.01
2023-02-05T21:18:56.097Z,-2.01
2023-02-05T21:21:29.386Z,-2.00
2023-02-05T21:24:01.561Z,-2.01
2023-02-05T21:26:37.364Z,-2.01
2023-02-05T21:29:10.641Z,-2.00
2023-02-05T21:31:42.184Z,-2.00
2023-02-05T21:34:16.191Z,-2.00
2023-02-05T21:36:46.058Z,-1.99
2023-02-05T21:39:16.365Z,-1.98
2023-02-05T21:41:47.768Z,-1.97
2023-02-05T21:44:19.149Z,-1.96
2023-02-05T21:46:49.431Z,-1.93
2023-02-05T21:49:19.032Z,-1.91
2023-02-05T21:51:48.947Z,-1.89
2023-02-05T21:54:17.623Z,-1.91
2023-02-05T21:56:46.816Z,-1.92
2023-02-05T21:59:16.682Z,-1.94
2023-02-05T22:01:46.843Z,-1.94
2023-02-05T22:04:16.995Z,-1.94
2023-02-05T22:06:46.023Z,-1.94
2023-02-05T22:09:17.838Z,-1.94
2023-02-05T22:11:49.391Z,-1.94
2023-02-05T22:14:18.469Z,-1.96
2023-02-05T22:16:46.895Z,-1.95
2023-02-05T22:19:20.437Z,-1.97
2023-02-05T22:21:51.097Z,-2.01
2023-02-05T22:24:25.394Z,-2.03
2023-02-05T22:26:55.078Z,-2.04
2023-02-05T22:29:26.208Z,-2.05
2023-02-05T22:31:56.632Z,-2.07
2023-02-05T22:34:26.100Z,-2.08
2023-02-05T22:36:55.510Z,-2.09
2023-02-05T22:39:24.440Z,-2.09
2023-02-05T22:41:53.316Z,-2.10
2023-02-05T22:44:23.052Z,-2.10
2023-02-05T22:46:51.560Z,-2.09
2023-02-05T22:49:21.273Z,-2.11
2023-02-05T22:51:51.792Z,-2.12
2023-02-05T22:54:21.441Z,-2.14
2023-02-05T22:56:51.236Z,-2.15
2023-02-05T22:59:21.053Z,-2.14
2023-02-05T23:01:49.675Z,-2.13
2023-02-05T23:04:18.167Z,-2.13
2023-02-05T23:06:47.886Z,-2.14
2023-02-05T23:09:18.074Z,-2.14
2023-02-05T23:11:49.061Z,-2.14
2023-02-05T23:14:19.720Z,-2.14
2023-02-05T23:16:50.579Z,-2.16
2023-02-05T23:19:20.518Z,-2.17
2023-02-05T23:21:49.993Z,-2.17
2023-02-05T23:24:19.295Z,-2.17
2023-02-05T23:26:51.004Z,-2.17
2023-02-05T23:29:19.964Z,-2.18
2023-02-05T23:31:51.519Z,-2.19
2023-02-05T23:34:20.740Z,-2.20
2023-02-05T23:36:50.151Z,-2.21
2023-02-05T23:39:19.041Z,-2.22
2023-02-05T23:41:48.618Z,-2.22
2023-02-05T23:44:21.171Z,-2.22
2023-02-05T23:46:50.826Z,-2.23
2023-02-05T23:49:24.260Z,-2.25
2023-02-05T23:51:53.737Z,-2.27
2023-02-05T23:54:24.267Z,-2.29
2023-02-05T23:56:53.099Z,-2.30
2023-02-05T23:59:21.965Z,-2.31
